Time;durP1;ratioP1;P1;durP2;ratioP2;P2;SDS_P1;SDS_P2;PMS_P1;PMS_P2;Temp;Humidity;BMP_temperature;BMP_pressure;BME280_temperature;BME280_humidity;BME280_pressure;Samples;Min_cycle;Max_cycle;Signal;HPM_P1;HPM_P2
2023/05/20 00:01:48;;;;;;;9.35;3.10;;;;;;;14.00;66.78;102312.94;7360797;19;20014;-63
2023/05/20 00:04:15;;;;;;;10.32;3.50;;;;;;;13.93;66.77;102309.16;7364662;19;20022;-63
2023/05/20 00:06:42;;;;;;;8.20;2.90;;;;;;;13.83;67.11;102303.03;7361613;19;20077;-63
2023/05/20 00:09:09;;;;;;;7.38;2.85;;;;;;;13.75;67.39;102301.06;7365437;19;20025;-62
2023/05/20 00:11:38;;;;;;;9.55;3.55;;;;;;;13.74;67.61;102290.63;7361161;19;20368;-63
2023/05/20 00:14:05;;;;;;;10.73;3.13;;;;;;;13.74;69.72;102304.69;7365086;19;20021;-63
2023/05/20 00:16:32;;;;;;;9.18;3.15;;;;;;;13.70;69.29;102304.13;7364998;19;20006;-63
2023/05/20 00:18:59;;;;;;;9.60;2.80;;;;;;;13.70;68.61;102301.50;7366394;19;20018;-63
2023/05/20 00:21:27;;;;;;;7.15;2.50;;;;;;;13.66;68.75;102294.78;7363778;19;20025;-63
2023/05/20 00:23:55;;;;;;;9.60;2.95;;;;;;;13.62;69.10;102290.72;7366772;19;20126;-63
2023/05/20 00:26:22;;;;;;;9.23;2.58;;;;;;;13.59;68.93;102296.31;7356825;19;20090;-63
2023/05/20 00:28:49;;;;;;;8.05;2.78;;;;;;;13.56;69.40;102290.47;7363294;19;20199;-64
2023/05/20 00:31:15;;;;;;;9.70;3.08;;;;;;;13.52;69.31;102289.88;7361509;19;20090;-65
2023/05/20 00:33:43;;;;;;;7.18;2.35;;;;;;;13.57;69.10;102295.59;7363845;19;20014;-62
2023/05/20 00:36:10;;;;;;;8.65;2.53;;;;;;;13.59;69.33;102291.03;7362878;19;20021;-65
2023/05/20 00:38:36;;;;;;;7.95;3.17;;;;;;;13.47;69.45;102291.25;7363201;19;20089;-63
2023/05/20 00:41:03;;;;;;;11.98;2.80;;;;;;;13.39;69.34;102284.00;7362672;19;20102;-63
2023/05/20 00:43:30;;;;;;;5.88;2.30;;;;;;;13.36;70.63;102296.69;7364738;19;20093;-63
2023/05/20 00:45:57;;;;;;;6.88;2.22;;;;;;;13.33;70.70;102283.72;7359330;19;20031;-63
2023/05/20 00:48:25;;;;;;;17.00;3.38;;;;;;;13.28;70.28;102292.88;7360313;19;20014;-63
2023/05/20 00:50:52;;;;;;;7.47;2.80;;;;;;;13.25;71.12;102290.53;7362888;19;20018;-63
2023/05/20 00:53:20;;;;;;;7.43;2.72;;;;;;;13.28;70.92;102292.03;7359709;19;20395;-62
2023/05/20 00:55:47;;;;;;;10.20;2.80;;;;;;;13.31;70.74;102283.03;7363884;19;20015;-64
2023/05/20 00:58:14;;;;;;;9.18;2.90;;;;;;;13.33;71.44;102289.00;7361832;19;20165;-63
2023/05/20 01:00:41;;;;;;;8.85;3.20;;;;;;;13.30;71.23;102284.81;7356561;19;20428;-63
2023/05/20 01:03:08;;;;;;;10.10;2.78;;;;;;;13.28;71.30;102286.75;7364025;19;20041;-62
2023/05/20 01:05:35;;;;;;;8.45;2.47;;;;;;;13.23;71.32;102281.03;7361425;19;20019;-62
2023/05/20 01:08:06;;;;;;;7.88;2.95;;;;;;;13.27;71.88;102279.78;7357051;19;20030;-62
2023/05/20 01:10:38;;;;;;;12.00;3.53;;;;;;;13.23;71.31;102281.88;7362446;19;20022;-64
2023/05/20 01:13:09;;;;;;;6.85;2.72;;;;;;;13.20;71.97;102278.66;7363967;19;20047;-62
2023/05/20 01:15:39;;;;;;;10.85;3.35;;;;;;;13.15;72.20;102280.88;7357353;19;20090;-63
2023/05/20 01:18:09;;;;;;;13.32;3.13;;;;;;;13.13;73.47;102270.44;7359829;19;20015;-63
2023/05/20 01:20:38;;;;;;;12.43;3.90;;;;;;;13.08;72.55;102275.25;7358786;19;20019;-63
2023/05/20 01:23:05;;;;;;;11.18;2.60;;;;;;;13.05;72.67;102274.69;7360830;19;20055;-64
2023/05/20 01:25:32;;;;;;;9.50;2.70;;;;;;;13.00;72.66;102268.97;7361535;19;20017;-69
2023/05/20 01:27:59;;;;;;;5.93;2.65;;;;;;;12.92;73.28;102266.13;7362395;19;20015;-63
2023/05/20 01:30:42;;;;;;;8.50;3.47;;;;;;;12.89;73.24;102266.41;7363023;19;20490;-63
2023/05/20 01:33:12;;;;;;;8.63;3.83;;;;;;;12.87;73.42;102263.88;7361085;19;20014;-64
2023/05/20 01:35:40;;;;;;;11.60;3.10;;;;;;;12.81;74.04;102264.41;7362876;19;20086;-63
2023/05/20 01:38:08;;;;;;;10.13;3.22;;;;;;;12.72;74.04;102254.63;7364481;19;20478;-62
2023/05/20 01:40:35;;;;;;;12.27;3.53;;;;;;;12.69;74.49;102247.00;7362037;19;20131;-62
2023/05/20 01:43:03;;;;;;;12.30;3.03;;;;;;;12.68;74.94;102245.31;7363728;19;20007;-63
2023/05/20 01:45:30;;;;;;;7.72;3.40;;;;;;;12.69;74.72;102244.34;7358356;19;20106;-63
2023/05/20 01:47:57;;;;;;;9.18;3.83;;;;;;;12.63;75.38;102237.78;7356894;19;20818;-63
2023/05/20 01:50:25;;;;;;;11.10;3.33;;;;;;;12.63;75.26;102235.16;7359121;19;20014;-63
2023/05/20 01:52:52;;;;;;;9.00;3.63;;;;;;;12.57;75.61;102238.31;7362891;19;20018;-63
2023/05/20 01:55:19;;;;;;;10.55;4.30;;;;;;;12.50;76.16;102242.41;7361762;19;20039;-63
2023/05/20 01:57:46;;;;;;;8.57;3.70;;;;;;;12.46;76.20;102242.81;7360636;19;20018;-63
2023/05/20 02:00:13;;;;;;;8.75;3.72;;;;;;;12.42;76.85;102242.25;7359399;19;20800;-63
2023/05/20 02:02:40;;;;;;;10.40;3.53;;;;;;;12.40;76.64;102238.88;7360516;19;20018;-63
2023/05/20 02:05:08;;;;;;;12.15;3.95;;;;;;;12.36;77.64;102240.13;7358697;19;20015;-62
2023/05/20 02:07:35;;;;;;;9.18;3.13;;;;;;;12.37;77.17;102239.16;7358439;19;20015;-66
2023/05/20 02:10:03;;;;;;;10.27;3.08;;;;;;;12.35;77.78;102244.56;7358318;19;20150;-61
2023/05/20 02:12:30;;;;;;;11.98;3.58;;;;;;;12.31;77.89;102247.59;7361055;19;20962;-62
2023/05/20 02:14:56;;;;;;;8.80;3.30;;;;;;;12.30;77.68;102241.47;7360805;19;20022;-63
2023/05/20 02:17:23;;;;;;;12.07;3.40;;;;;;;12.27;78.16;102244.38;7356028;19;20037;-63
2023/05/20 02:19:51;;;;;;;11.20;3.53;;;;;;;12.29;78.04;102241.63;7361905;19;20025;-63
2023/05/20 02:22:18;;;;;;;9.95;3.40;;;;;;;12.24;78.02;102241.16;7359051;19;20006;-64
2023/05/20 02:24:45;;;;;;;10.35;3.70;;;;;;;12.19;78.43;102238.88;7361648;19;20050;-63
2023/05/20 02:27:12;;;;;;;11.52;3.40;;;;;;;12.13;78.87;102231.50;7357539;19;20018;-63
2023/05/20 02:29:39;;;;;;;9.25;3.40;;;;;;;12.14;78.92;102227.06;7359949;19;20106;-63
2023/05/20 02:32:06;;;;;;;12.80;3.72;;;;;;;12.11;79.28;102224.66;7358103;19;20023;-63
2023/05/20 02:34:33;;;;;;;9.65;3.60;;;;;;;12.08;79.40;102223.13;7359890;19;20363;-63
2023/05/20 02:37:00;;;;;;;8.77;3.03;;;;;;;12.06;79.99;102225.06;7361162;19;20011;-62
2023/05/20 02:39:27;;;;;;;10.15;3.63;;;;;;;12.01;80.26;102224.59;7368442;19;20599;-63
2023/05/20 02:41:55;;;;;;;14.80;3.72;;;;;;;11.97;80.63;102225.81;7364618;19;20548;-63
2023/05/20 02:44:22;;;;;;;10.05;4.30;;;;;;;11.96;81.32;102222.34;7368140;19;20355;-63
2023/05/20 02:46:49;;;;;;;9.82;4.28;;;;;;;12.00;81.26;102223.75;7361903;19;20011;-63
2023/05/20 02:49:16;;;;;;;9.73;3.67;;;;;;;11.99;81.48;102231.78;7366822;19;20359;-63
2023/05/20 02:51:43;;;;;;;8.48;3.50;;;;;;;12.00;81.32;102229.03;7365043;19;20045;-63
2023/05/20 02:54:10;;;;;;;13.23;3.67;;;;;;;11.91;81.30;102213.97;7366638;19;20501;-63
2023/05/20 02:56:37;;;;;;;10.90;4.13;;;;;;;11.93;81.97;102221.78;7362496;19;20010;-62
2023/05/20 02:59:05;;;;;;;15.88;4.05;;;;;;;11.80;82.42;102221.09;7369057;19;20030;-63
2023/05/20 03:01:34;;;;;;;9.55;3.45;;;;;;;11.79;82.50;102225.53;7363384;19;20098;-62
2023/05/20 03:04:02;;;;;;;12.63;4.60;;;;;;;11.75;83.26;102224.09;7363354;19;20086;-63
2023/05/20 03:06:30;;;;;;;9.07;3.75;;;;;;;11.78;84.50;102220.41;7365632;19;20817;-62
2023/05/20 03:08:58;;;;;;;10.95;4.18;;;;;;;11.77;83.63;102224.84;7365402;19;20011;-63
2023/05/20 03:11:25;;;;;;;11.38;4.80;;;;;;;11.73;83.75;102225.22;7362532;19;20803;-63
2023/05/20 03:13:52;;;;;;;15.52;4.90;;;;;;;11.70;83.78;102228.06;7367052;19;20022;-63
2023/05/20 03:16:19;;;;;;;13.30;4.32;;;;;;;11.55;84.03;102228.34;7363211;19;20657;-63
2023/05/20 03:18:47;;;;;;;11.93;5.20;;;;;;;11.52;84.21;102225.97;7366427;19;20089;-63
2023/05/20 03:21:14;;;;;;;13.63;5.22;;;;;;;11.44;85.01;102235.44;7366035;19;20427;-63
2023/05/20 03:23:41;;;;;;;14.20;5.05;;;;;;;11.39;85.05;102232.34;7364491;19;20031;-62
2023/05/20 03:26:08;;;;;;;12.05;5.70;;;;;;;11.38;84.99;102222.75;7364854;19;20018;-64
2023/05/20 03:28:35;;;;;;;14.05;4.95;;;;;;;11.36;85.98;102222.06;7364807;19;20015;-63
2023/05/20 03:31:02;;;;;;;15.20;4.70;;;;;;;11.37;85.75;102221.09;7362365;19;20806;-63
2023/05/20 03:33:30;;;;;;;13.02;5.50;;;;;;;11.37;85.75;102218.47;7366511;19;20025;-63
2023/05/20 03:35:57;;;;;;;15.15;5.80;;;;;;;11.36;85.42;102222.06;7365067;19;20023;-62
2023/05/20 03:38:24;;;;;;;11.70;5.00;;;;;;;11.34;85.54;102221.31;7366295;19;20051;-63
2023/05/20 03:40:51;;;;;;;15.60;5.15;;;;;;;11.29;85.75;102218.22;7364261;19;20032;-63
2023/05/20 03:43:18;;;;;;;13.75;5.72;;;;;;;11.29;86.03;102223.50;7365748;19;20022;-64
2023/05/20 03:45:45;;;;;;;10.95;5.28;;;;;;;11.29;86.16;102215.59;7360224;19;20024;-64
2023/05/20 03:48:12;;;;;;;16.20;6.43;;;;;;;11.29;86.65;102224.31;7361844;19;20446;-64
2023/05/20 03:50:38;;;;;;;14.05;5.38;;;;;;;11.28;86.75;102217.38;7361435;19;21034;-62
2023/05/20 03:53:05;;;;;;;12.30;5.45;;;;;;;11.32;86.67;102228.53;7366380;19;20102;-63
2023/05/20 03:55:33;;;;;;;12.88;5.25;;;;;;;11.28;86.78;102220.00;7363665;19;20041;-63
2023/05/20 03:58:00;;;;;;;14.98;5.30;;;;;;;11.28;87.09;102222.66;7366476;19;20553;-63
2023/05/20 04:00:30;;;;;;;16.48;6.10;;;;;;;11.24;87.24;102221.22;7361250;19;20026;-64
2023/05/20 04:02:57;;;;;;;14.75;5.35;;;;;;;11.27;87.62;102225.44;7362862;19;20018;-63
2023/05/20 04:05:24;;;;;;;14.52;5.05;;;;;;;11.28;87.61;102222.66;7360855;19;20099;-63
2023/05/20 04:07:51;;;;;;;15.45;6.20;;;;;;;11.34;87.49;102230.06;7364467;19;20025;-63
2023/05/20 04:10:19;;;;;;;12.15;5.25;;;;;;;11.38;87.35;102218.31;7363748;19;20515;-63
2023/05/20 04:12:46;;;;;;;17.63;5.68;;;;;;;11.41;87.25;102215.44;7361313;19;20023;-62
2023/05/20 04:15:13;;;;;;;12.85;5.57;;;;;;;11.45;86.76;102211.59;7360930;19;20019;-64
2023/05/20 04:17:41;;;;;;;10.68;4.85;;;;;;;11.48;86.77;102213.13;7362381;19;20022;-62
2023/05/20 04:20:10;;;;;;;16.63;5.30;;;;;;;11.48;86.70;102211.34;7364167;19;20049;-64
2023/05/20 04:22:38;;;;;;;16.23;5.43;;;;;;;11.54;87.21;102217.91;7363545;19;20029;-64
2023/05/20 04:25:05;;;;;;;20.90;6.90;;;;;;;11.55;86.29;102212.53;7362308;19;20109;-63
2023/05/20 04:27:32;;;;;;;10.90;4.40;;;;;;;11.55;86.58;102214.31;7360351;19;20006;-63
2023/05/20 04:30:01;;;;;;;12.95;4.68;;;;;;;11.55;86.34;102211.69;7361914;19;20090;-63
2023/05/20 04:32:29;;;;;;;16.83;5.82;;;;;;;11.58;87.55;102221.97;7361804;19;20018;-62
2023/05/20 04:34:56;;;;;;;14.55;5.10;;;;;;;11.64;86.54;102226.75;7364766;19;20043;-62
2023/05/20 04:37:24;;;;;;;12.93;4.78;;;;;;;11.62;86.09;102225.22;7363934;19;21818;-62
2023/05/20 04:39:51;;;;;;;14.02;5.38;;;;;;;11.64;86.07;102218.84;7368020;19;20022;-62
2023/05/20 04:42:20;;;;;;;13.70;5.40;;;;;;;11.61;86.17;102220.91;7363050;19;20214;-64
2023/05/20 04:44:47;;;;;;;11.85;5.40;;;;;;;11.64;87.97;102215.38;7364141;19;20020;-64
2023/05/20 04:47:14;;;;;;;13.70;4.93;;;;;;;11.72;86.39;102223.50;7358420;19;20959;-63
2023/05/20 04:49:41;;;;;;;13.77;5.70;;;;;;;11.72;85.73;102215.59;7362798;19;20950;-62
2023/05/20 04:52:08;;;;;;;12.70;5.22;;;;;;;11.72;85.91;102216.44;7362354;19;20478;-63
2023/05/20 04:54:35;;;;;;;12.43;5.40;;;;;;;11.71;86.05;102217.38;7364272;19;20014;-63
2023/05/20 04:57:02;;;;;;;14.50;5.20;;;;;;;11.66;86.12;102216.94;7363109;19;20560;-64
2023/05/20 04:59:29;;;;;;;13.80;5.68;;;;;;;11.68;86.56;102224.72;7362620;19;20026;-64
2023/05/20 05:01:56;;;;;;;13.13;6.07;;;;;;;11.70;86.68;102212.22;7358355;19;20945;-63
2023/05/20 05:04:23;;;;;;;14.98;5.70;;;;;;;11.69;86.61;102218.47;7361769;19;20022;-62
2023/05/20 05:06:50;;;;;;;11.07;5.32;;;;;;;11.71;86.75;102219.19;7360267;19;20038;-64
2023/05/20 05:09:17;;;;;;;13.05;5.65;;;;;;;11.74;87.75;102225.06;7362065;19;20015;-64
2023/05/20 05:11:44;;;;;;;15.60;6.13;;;;;;;11.71;86.42;102216.53;7361671;19;20037;-62
2023/05/20 05:14:11;;;;;;;13.73;4.90;;;;;;;11.74;87.18;102214.53;7362498;19;20699;-62
2023/05/20 05:16:38;;;;;;;16.52;5.72;;;;;;;11.78;87.17;102218.59;7360357;19;20363;-63
2023/05/20 05:19:06;;;;;;;16.38;5.03;;;;;;;11.78;86.57;102220.41;7363561;19;20571;-64
2023/05/20 05:21:33;;;;;;;18.50;6.10;;;;;;;11.77;86.70;102216.09;7360886;19;20486;-63
2023/05/20 05:24:00;;;;;;;13.30;5.68;;;;;;;11.77;87.06;102216.09;7363361;19;20031;-64
2023/05/20 05:26:26;;;;;;;13.23;5.18;;;;;;;11.82;86.68;102219.19;7361372;19;20025;-63
2023/05/20 05:28:53;;;;;;;14.48;5.53;;;;;;;11.82;86.61;102211.28;7362873;19;20018;-64
2023/05/20 05:31:21;;;;;;;14.82;6.00;;;;;;;11.81;86.66;102218.34;7358115;19;20497;-64
2023/05/20 05:33:48;;;;;;;14.15;5.68;;;;;;;11.79;86.54;102209.72;7358360;19;20078;-64
2023/05/20 05:36:15;;;;;;;13.68;5.72;;;;;;;11.77;87.06;102214.28;7360487;19;20015;-63
2023/05/20 05:38:43;;;;;;;13.45;5.18;;;;;;;11.73;87.49;102204.97;7362405;19;20021;-63
2023/05/20 05:41:10;;;;;;;11.85;4.90;;;;;;;11.77;87.46;102213.44;7356884;19;20888;-62
2023/05/20 05:43:37;;;;;;;13.52;5.25;;;;;;;11.84;86.97;102210.16;7360428;19;21668;-63
2023/05/20 05:46:09;;;;;;;13.80;5.53;;;;;;;11.88;87.02;102224.78;7358036;19;20019;-63
2023/05/20 05:48:36;;;;;;;12.10;5.40;;;;;;;11.92;86.98;102209.53;7360094;19;20043;-63
2023/05/20 05:51:03;;;;;;;14.02;5.40;;;;;;;12.00;86.27;102213.22;7358049;19;20019;-63
2023/05/20 05:53:30;;;;;;;14.10;5.85;;;;;;;12.02;86.39;102213.09;7360338;19;20029;-63
2023/05/20 05:56:06;;;;;;;15.15;5.95;;;;;;;12.10;85.49;102212.44;7359177;19;20023;-64
2023/05/20 05:58:33;;;;;;;12.48;5.38;;;;;;;12.12;86.33;102218.44;7361661;19;20019;-64
2023/05/20 06:01:00;;;;;;;10.60;4.93;;;;;;;12.13;86.37;102214.84;7358510;19;20022;-64
2023/05/20 06:03:28;;;;;;;13.23;4.85;;;;;;;12.14;86.28;102219.16;7359687;19;20022;-64
2023/05/20 06:05:56;;;;;;;16.73;5.43;;;;;;;12.18;85.18;102218.75;7360142;19;20512;-63
2023/05/20 06:08:23;;;;;;;16.65;5.50;;;;;;;12.17;85.30;102218.88;7360106;19;20014;-64
2023/05/20 06:10:50;;;;;;;12.52;5.43;;;;;;;12.06;85.78;102227.69;7359402;19;21114;-62
2023/05/20 06:13:17;;;;;;;15.45;5.55;;;;;;;12.07;85.85;102229.38;7359548;19;20035;-62
2023/05/20 06:15:45;;;;;;;11.88;5.40;;;;;;;12.06;86.00;102222.41;7358338;19;20402;-63
2023/05/20 06:18:12;;;;;;;15.32;5.60;;;;;;;12.06;86.76;102221.56;7363333;19;20085;-63
2023/05/20 06:20:39;;;;;;;12.68;5.53;;;;;;;12.06;86.62;102227.69;7359227;19;20029;-63
2023/05/20 06:23:06;;;;;;;11.05;5.38;;;;;;;12.04;86.37;102224.34;7357777;19;20018;-63
2023/05/20 06:25:33;;;;;;;16.02;5.32;;;;;;;12.05;86.84;102230.44;7359470;19;20014;-62
2023/05/20 06:28:00;;;;;;;19.00;5.57;;;;;;;12.00;86.85;102228.19;7361210;19;20030;-63
2023/05/20 06:30:28;;;;;;;14.30;6.00;;;;;;;12.05;86.88;102218.09;7356978;19;20025;-63
2023/05/20 06:32:54;;;;;;;11.85;5.13;;;;;;;12.12;86.24;102221.06;7360286;19;20026;-64
2023/05/20 06:35:21;;;;;;;15.27;5.40;;;;;;;12.17;86.48;102218.88;7360173;19;20707;-63
2023/05/20 06:37:48;;;;;;;16.63;5.82;;;;;;;12.17;86.22;102214.44;7360470;19;20713;-64
2023/05/20 06:40:16;;;;;;;13.32;5.60;;;;;;;12.14;87.14;102212.03;7361072;19;20113;-63
2023/05/20 06:42:43;;;;;;;15.68;5.85;;;;;;;12.15;86.70;102204.97;7360793;19;20025;-63
2023/05/20 06:45:10;;;;;;;17.15;6.47;;;;;;;12.11;86.87;102208.84;7359887;19;20082;-63
2023/05/20 06:47:37;;;;;;;12.75;6.20;;;;;;;12.06;87.39;102201.31;7356641;19;20325;-63
2023/05/20 06:50:05;;;;;;;15.52;6.28;;;;;;;12.07;87.98;102205.63;7358101;19;20681;-67
2023/05/20 06:52:31;;;;;;;16.92;6.57;;;;;;;12.08;87.15;102209.09;7357856;19;20022;-63
2023/05/20 06:54:58;;;;;;;16.08;5.53;;;;;;;12.11;87.27;102201.75;7360485;19;20940;-63
2023/05/20 06:57:25;;;;;;;15.98;5.88;;;;;;;12.17;86.88;102198.63;7359943;19;20478;-63
2023/05/20 06:59:53;;;;;;;14.48;6.75;;;;;;;12.18;86.79;102202.94;7359777;19;20018;-63
2023/05/20 07:02:21;;;;;;;18.08;6.55;;;;;;;12.24;86.82;102197.13;7358321;19;20030;-64
2023/05/20 07:04:48;;;;;;;15.27;5.57;;;;;;;12.29;86.93;102199.38;7361016;19;20011;-64
2023/05/20 07:07:16;;;;;;;15.52;6.00;;;;;;;12.30;86.73;102204.53;7360138;19;20081;-64
2023/05/20 07:09:43;;;;;;;13.75;6.35;;;;;;;12.37;85.90;102200.41;7359283;19;20007;-63
2023/05/20 07:12:10;;;;;;;14.68;6.00;;;;;;;12.42;86.31;102194.72;7360079;19;20431;-64
2023/05/20 07:14:37;;;;;;;16.70;6.07;;;;;;;12.43;86.07;102199.88;7356801;19;20019;-64
2023/05/20 07:17:04;;;;;;;13.60;6.63;;;;;;;12.47;85.78;102192.53;7356740;19;20657;-63
2023/05/20 07:19:32;;;;;;;15.27;5.88;;;;;;;12.50;86.09;102192.25;7356380;19;20018;-64
2023/05/20 07:21:59;;;;;;;12.68;6.00;;;;;;;12.56;85.62;102197.03;7354916;19;20018;-64
2023/05/20 07:24:26;;;;;;;14.50;5.90;;;;;;;12.60;85.54;102192.31;7366537;19;20690;-64
2023/05/20 07:26:53;;;;;;;19.27;6.30;;;;;;;12.70;85.10;102201.09;7362958;19;20520;-63
2023/05/20 07:29:20;;;;;;;18.00;6.47;;;;;;;12.73;85.02;102185.84;7367349;19;20018;-62
2023/05/20 07:31:47;;;;;;;18.88;7.65;;;;;;;12.81;84.88;102193.09;7360768;19;20082;-64
2023/05/20 07:34:14;;;;;;;15.90;6.30;;;;;;;12.85;84.29;102189.22;7368746;19;20335;-63
2023/05/20 07:36:42;;;;;;;18.92;7.03;;;;;;;12.87;84.58;102187.28;7363958;19;21249;-63
2023/05/20 07:39:09;;;;;;;17.98;7.50;;;;;;;12.90;84.92;102191.47;7366743;19;20369;-63
2023/05/20 07:41:40;;;;;;;16.75;6.80;;;;;;;12.90;84.74;102191.47;7363551;19;20087;-64
2023/05/20 07:44:10;;;;;;;19.42;6.47;;;;;;;13.12;83.81;102196.56;7364861;19;20010;-63
2023/05/20 07:46:37;;;;;;;13.13;6.20;;;;;;;13.24;82.15;102195.50;7363408;19;20380;-64
2023/05/20 07:49:04;;;;;;;12.82;6.13;;;;;;;13.27;81.85;102200.50;7368926;19;20021;-64
2023/05/20 07:51:32;;;;;;;19.27;7.00;;;;;;;13.32;82.22;102186.84;7361211;19;20038;-63
2023/05/20 07:54:02;;;;;;;10.52;5.93;;;;;;;13.45;81.91;102183.00;7365042;19;20537;-62
2023/05/20 07:56:29;;;;;;;14.70;5.50;;;;;;;13.65;80.52;102184.69;7365734;19;20100;-63
2023/05/20 07:58:58;;;;;;;16.48;5.75;;;;;;;13.92;79.97;102183.09;7366963;19;20094;-64
2023/05/20 08:01:26;;;;;;;12.60;6.90;;;;;;;14.26;77.87;102188.78;7362574;19;20019;-64
2023/05/20 08:03:54;;;;;;;15.57;5.97;;;;;;;14.39;76.60;102184.03;7362423;19;20642;-64
2023/05/20 08:06:23;;;;;;;14.10;5.15;;;;;;;14.44;76.47;102181.78;7365226;19;20010;-64
2023/05/20 08:09:01;;;;;;;15.05;4.97;;;;;;;14.49;77.15;102168.94;7363277;19;20481;-62
2023/05/20 08:11:28;;;;;;;12.48;5.28;;;;;;;14.91;74.06;102164.84;7361915;19;20014;-63
2023/05/20 08:13:55;;;;;;;11.65;4.63;;;;;;;15.09;74.29;102170.19;7364808;19;21119;-63
2023/05/20 08:16:24;;;;;;;20.60;5.47;;;;;;;15.18;72.99;102161.34;7362015;19;20499;-64
2023/05/20 08:18:53;;;;;;;14.30;5.20;;;;;;;15.12;73.11;102153.16;7361338;19;20033;-63
2023/05/20 08:21:20;;;;;;;15.85;5.13;;;;;;;15.27;74.46;102156.97;7363116;19;20022;-64
2023/05/20 08:23:48;;;;;;;11.32;4.65;;;;;;;15.54;72.84;102161.41;7364610;19;20102;-64
2023/05/20 08:26:17;;;;;;;12.25;4.60;;;;;;;15.59;72.19;102152.00;7361214;19;20026;-63
2023/05/20 08:28:48;;;;;;;11.23;4.70;;;;;;;15.70;71.86;102148.25;7363906;19;20010;-62
2023/05/20 08:31:16;;;;;;;33.50;5.43;;;;;;;15.64;71.85;102154.19;7363490;19;21763;-63
2023/05/20 08:33:44;;;;;;;14.98;4.35;;;;;;;15.68;71.14;102144.94;7363308;19;20019;-63
2023/05/20 08:36:11;;;;;;;10.02;5.00;;;;;;;15.65;71.86;102148.72;7361635;19;20029;-64
2023/05/20 08:38:38;;;;;;;16.55;4.18;;;;;;;15.67;70.91;102137.94;7361208;19;20082;-63
2023/05/20 08:41:05;;;;;;;10.02;4.07;;;;;;;15.60;70.78;102140.38;7364710;19;20387;-64
2023/05/20 08:43:33;;;;;;;16.70;4.63;;;;;;;15.59;71.13;102148.50;7366577;19;20097;-63
2023/05/20 08:46:06;;;;;;;9.77;4.13;;;;;;;15.65;71.33;102143.41;7361740;19;20018;-64
2023/05/20 08:48:50;;;;;;;14.23;3.95;;;;;;;15.77;70.83;102139.53;7362460;19;20026;-63
2023/05/20 08:51:20;;;;;;;10.77;3.10;;;;;;;15.98;70.48;102143.66;7361303;19;20022;-63
2023/05/20 08:53:50;;;;;;;14.18;3.60;;;;;;;16.15;69.73;102140.13;7364179;19;20029;-64
2023/05/20 08:56:22;;;;;;;9.93;3.38;;;;;;;16.57;67.87;102146.31;7364967;19;21821;-64
2023/05/20 08:58:56;;;;;;;8.60;3.70;;;;;;;16.75;67.52;102133.00;7366591;19;20022;-62
2023/05/20 09:01:25;;;;;;;9.63;3.30;;;;;;;16.76;66.79;102136.47;7360112;19;20015;-63
2023/05/20 09:03:52;;;;;;;16.90;3.47;;;;;;;16.89;66.88;102137.69;7363732;19;21647;-63
2023/05/20 09:06:22;;;;;;;12.80;3.40;;;;;;;17.19;65.08;102127.44;7358165;19;20014;-63
2023/05/20 09:08:52;;;;;;;11.30;3.13;;;;;;;17.17;64.51;102116.94;7366506;19;20394;-63
2023/05/20 09:11:21;;;;;;;8.52;3.67;;;;;;;17.49;63.67;102134.78;7362331;19;21042;-63
2023/05/20 09:13:49;;;;;;;8.73;3.38;;;;;;;17.50;63.07;102129.31;7364322;19;20117;-63
2023/05/20 09:16:17;;;;;;;6.28;2.53;;;;;;;17.42;63.25;102126.63;7360453;19;20446;-62
2023/05/20 09:18:45;;;;;;;10.65;3.10;;;;;;;17.32;63.61;102122.47;7362166;19;20038;-64
2023/05/20 09:21:12;;;;;;;8.57;2.90;;;;;;;17.20;64.79;102121.13;7359127;19;20018;-63
2023/05/20 09:23:39;;;;;;;9.10;3.47;;;;;;;17.15;65.26;102110.97;7363781;19;20489;-64
2023/05/20 09:26:06;;;;;;;10.02;3.47;;;;;;;17.13;65.12;102112.97;7363728;19;20478;-63
2023/05/20 09:28:37;;;;;;;10.70;3.22;;;;;;;17.15;65.43;102105.66;7364039;19;20142;-64
2023/05/20 09:31:05;;;;;;;9.43;2.80;;;;;;;17.19;65.52;102111.47;7359410;19;20132;-63
2023/05/20 09:33:34;;;;;;;9.73;2.80;;;;;;;17.23;66.06;102100.34;7364699;19;20025;-63
2023/05/20 09:36:07;;;;;;;7.07;2.40;;;;;;;17.33;65.09;102097.50;7362550;19;20018;-62
2023/05/20 09:38:38;;;;;;;12.07;3.55;;;;;;;17.35;64.71;102101.69;7359871;19;20098;-63
2023/05/20 09:41:10;;;;;;;10.02;2.50;;;;;;;17.49;64.38;102098.34;7364400;19;20109;-62
2023/05/20 09:43:39;;;;;;;9.32;2.25;;;;;;;17.56;64.27;102095.88;7363159;19;20716;-62
2023/05/20 09:46:07;;;;;;;9.68;3.40;;;;;;;17.62;64.09;102095.25;7359530;19;20026;-64
2023/05/20 09:48:36;;;;;;;12.15;2.72;;;;;;;17.71;64.33;102091.56;7353512;19;20510;-62
2023/05/20 09:51:05;;;;;;;6.47;2.03;;;;;;;17.84;62.58;102083.88;7358541;19;20030;-64
2023/05/20 09:53:33;;;;;;;6.10;2.40;;;;;;;17.85;62.64;102085.56;7362127;19;20033;-63
2023/05/20 09:56:06;;;;;;;8.30;2.30;;;;;;;17.87;62.48;102088.88;7359322;19;20455;-63
2023/05/20 09:58:35;;;;;;;8.48;2.13;;;;;;;17.88;62.32;102087.88;7360469;19;20360;-65
2023/05/20 10:01:04;;;;;;;10.80;2.25;;;;;;;17.94;62.11;102076.53;7359508;19;20038;-63
2023/05/20 10:03:32;;;;;;;10.85;2.20;;;;;;;17.99;62.66;102069.84;7359425;19;20037;-63
2023/05/20 10:06:08;;;;;;;8.02;2.45;;;;;;;18.00;62.27;102075.03;7360724;19;20021;-62
2023/05/20 10:08:47;;;;;;;10.25;2.88;;;;;;;18.11;62.33;102071.16;7363609;19;20050;-63
2023/05/20 10:11:32;;;;;;;9.15;1.73;;;;;;;18.14;61.71;102057.50;7360075;19;20058;-62
2023/05/20 10:14:21;;;;;;;11.52;2.17;;;;;;;18.29;60.84;102064.59;7362733;19;20499;-63
2023/05/20 10:16:51;;;;;;;6.00;1.63;;;;;;;18.43;61.34;102064.91;7359303;19;21627;-64
2023/05/20 10:19:29;;;;;;;7.05;1.92;;;;;;;18.53;59.83;102053.03;7362756;19;21053;-63
2023/05/20 10:22:01;;;;;;;8.45;2.30;;;;;;;18.65;59.26;102062.28;7361343;19;20021;-63
2023/05/20 10:24:32;;;;;;;9.57;1.83;;;;;;;18.68;56.66;102051.28;7359586;19;20057;-63
2023/05/20 10:27:02;;;;;;;7.40;1.80;;;;;;;18.69;56.44;102047.59;7358399;19;20282;-66
2023/05/20 10:29:42;;;;;;;10.75;1.85;;;;;;;18.74;56.60;102057.78;7360073;19;20019;-64
2023/05/20 10:32:09;;;;;;;15.02;2.28;;;;;;;18.77;57.81;102039.56;7356024;19;20095;-62
2023/05/20 10:34:46;;;;;;;7.03;1.42;;;;;;;18.84;57.13;102044.19;7361611;19;20026;-64
2023/05/20 10:37:25;;;;;;;9.10;1.92;;;;;;;18.88;56.41;102053.50;7359496;19;20014;-62
2023/05/20 10:40:04;;;;;;;10.45;1.77;;;;;;;18.94;56.68;102058.97;7359026;19;20026;-64
2023/05/20 10:42:31;;;;;;;8.68;2.17;;;;;;;18.89;56.36;102053.34;7359655;19;21823;-63
2023/05/20 10:44:59;;;;;;;7.00;1.73;;;;;;;18.88;56.27;102046.34;7356133;19;20014;-63
2023/05/20 10:47:27;;;;;;;9.57;1.73;;;;;;;18.80;56.00;102046.38;7357588;19;20018;-63
2023/05/20 10:49:55;;;;;;;8.73;1.30;;;;;;;18.72;55.96;102041.94;7357482;19;20031;-63
2023/05/20 10:52:23;;;;;;;5.97;1.48;;;;;;;18.65;56.71;102040.97;7356900;19;20051;-62
2023/05/20 10:54:55;;;;;;;9.90;1.67;;;;;;;18.67;57.15;102041.63;7359958;19;20034;-63
2023/05/20 10:57:23;;;;;;;4.85;1.77;;;;;;;18.74;57.03;102033.78;7357834;19;20099;-64
2023/05/20 10:59:50;;;;;;;5.45;1.35;;;;;;;18.83;55.97;102032.69;7366417;19;20519;-63
2023/05/20 11:02:21;;;;;;;6.43;1.33;;;;;;;18.84;55.73;102036.19;7365168;19;20042;-63
2023/05/20 11:04:51;;;;;;;7.57;1.65;;;;;;;18.74;53.99;102025.75;7364368;19;20007;-63
2023/05/20 11:07:28;;;;;;;7.05;1.30;;;;;;;18.79;54.65;102026.06;7367723;19;20011;-63
2023/05/20 11:09:56;;;;;;;4.10;1.13;;;;;;;18.79;54.89;102021.53;7364745;19;20014;-63
2023/05/20 11:12:25;;;;;;;3.92;1.00;;;;;;;18.77;53.23;102025.41;7364395;19;20018;-63
2023/05/20 11:14:54;;;;;;;7.18;1.35;;;;;;;18.73;53.43;102022.25;7363562;19;20451;-63
2023/05/20 11:17:21;;;;;;;5.88;1.15;;;;;;;18.85;54.07;102022.66;7364457;19;20640;-64
2023/05/20 11:19:49;;;;;;;6.20;1.08;;;;;;;18.98;54.23;102011.41;7365370;19;20018;-63
2023/05/20 11:22:16;;;;;;;6.70;1.05;;;;;;;19.19;53.26;102015.09;7362640;19;20047;-62
2023/05/20 11:24:44;;;;;;;11.88;1.17;;;;;;;19.37;53.04;102013.91;7365203;19;20022;-63